createdAt,value
2018-12-08T00:00:01.192Z,10.20
2018-12-08T00:01:02.481Z,10.20
2018-12-08T00:02:03.672Z,10.20
2018-12-08T00:03:04.766Z,10.20
2018-12-08T00:04:06.075Z,10.20
2018-12-08T00:05:07.292Z,10.20
2018-12-08T00:06:08.320Z,10.20
2018-12-08T00:07:09.335Z,10.20
2018-12-08T00:08:10.432Z,10.20
2018-12-08T00:09:11.506Z,10.20
2018-12-08T00:10:12.731Z,10.10
2018-12-08T00:11:13.704Z,10.10
2018-12-08T00:12:14.757Z,10.10
2018-12-08T00:13:15.892Z,10.00
2018-12-08T00:14:17.033Z,10.10
2018-12-08T00:15:18.119Z,10.00
2018-12-08T00:16:19.323Z,10.00
2018-12-08T00:17:20.323Z,9.90
2018-12-08T00:18:21.422Z,9.90
2018-12-08T00:19:29.646Z,9.90
2018-12-08T00:20:30.924Z,9.90
2018-12-08T00:21:31.917Z,9.90
2018-12-08T00:22:32.999Z,9.90
2018-12-08T00:23:33.972Z,9.90
2018-12-08T00:24:35.051Z,9.80
2018-12-08T00:25:36.036Z,9.80
2018-12-08T00:26:37.120Z,9.80
2018-12-08T00:27:38.273Z,9.80
2018-12-08T00:28:39.263Z,9.80
2018-12-08T00:29:40.328Z,9.70
2018-12-08T00:30:53.693Z,9.70
2018-12-08T00:31:54.656Z,9.70
2018-12-08T00:32:55.627Z,9.70
2018-12-08T00:33:56.710Z,9.70
2018-12-08T00:34:57.679Z,9.60
2018-12-08T00:35:58.793Z,9.60
2018-12-08T00:36:59.750Z,9.60
2018-12-08T00:38:00.723Z,9.60
2018-12-08T00:39:01.803Z,9.50
2018-12-08T00:40:03.870Z,9.60
2018-12-08T00:41:04.848Z,9.60
2018-12-08T00:42:05.820Z,9.50
2018-12-08T00:43:06.824Z,9.60
2018-12-08T00:44:07.921Z,9.70
2018-12-08T00:45:09.196Z,9.60
2018-12-08T00:46:10.308Z,9.60
2018-12-08T00:47:11.276Z,9.60
2018-12-08T00:48:12.244Z,9.70
2018-12-08T00:49:13.220Z,9.70
2018-12-08T00:50:14.205Z,9.70
2018-12-08T00:51:15.267Z,9.70
2018-12-08T00:52:16.347Z,9.70
2018-12-08T00:53:17.335Z,9.60
2018-12-08T00:54:18.315Z,9.60
2018-12-08T00:55:19.383Z,9.70
2018-12-08T00:56:20.453Z,9.70
2018-12-08T00:57:21.417Z,9.70
2018-12-08T00:58:22.499Z,9.70
2018-12-08T00:59:23.576Z,9.70
2018-12-08T01:00:24.747Z,9.60
2018-12-08T01:01:25.932Z,9.60
2018-12-08T01:02:27.066Z,9.60
2018-12-08T01:03:28.132Z,9.70
2018-12-08T01:04:29.104Z,9.60
2018-12-08T01:05:30.178Z,9.60
2018-12-08T01:06:31.252Z,9.60
2018-12-08T01:07:32.346Z,9.60
2018-12-08T01:08:33.475Z,9.60
2018-12-08T01:09:34.647Z,9.60
2018-12-08T01:10:35.818Z,9.70
2018-12-08T01:11:37.159Z,9.70
2018-12-08T01:12:38.232Z,9.70
2018-12-08T01:13:39.303Z,9.80
2018-12-08T01:14:40.275Z,9.70
2018-12-08T01:15:41.255Z,9.80
2018-12-08T01:16:42.331Z,9.70
2018-12-08T01:17:43.405Z,9.70
2018-12-08T01:18:44.602Z,9.60
2018-12-08T01:19:45.570Z,9.60
2018-12-08T01:20:46.531Z,9.60
2018-12-08T01:21:47.507Z,9.60
2018-12-08T01:22:48.475Z,9.60
2018-12-08T01:23:49.446Z,9.60
2018-12-08T01:24:50.647Z,9.70
2018-12-08T01:25:51.732Z,9.70
2018-12-08T01:26:52.723Z,9.70
2018-12-08T01:27:53.803Z,9.70
2018-12-08T01:28:54.776Z,9.80
2018-12-08T01:29:55.863Z,9.80
2018-12-08T01:31:03.935Z,9.80
2018-12-08T01:32:04.895Z,9.80
2018-12-08T01:33:05.964Z,9.80
2018-12-08T01:34:06.956Z,9.80
2018-12-08T01:35:08.035Z,9.90
2018-12-08T01:36:09.112Z,9.80
2018-12-08T01:37:10.312Z,9.80
2018-12-08T01:38:11.372Z,9.80
2018-12-08T01:39:12.805Z,9.70
2018-12-08T01:40:14.119Z,9.60
2018-12-08T01:41:22.251Z,9.70
2018-12-08T01:42:23.215Z,9.70
2018-12-08T01:43:24.173Z,9.60
2018-12-08T01:44:25.267Z,9.60
2018-12-08T01:45:26.260Z,9.60
2018-12-08T01:46:27.250Z,9.60
2018-12-08T01:47:28.215Z,9.60
2018-12-08T01:48:29.187Z,9.60
2018-12-08T01:49:30.147Z,9.60
2018-12-08T01:50:31.108Z,9.50
2018-12-08T01:51:32.107Z,9.60
2018-12-08T01:52:33.074Z,9.60
2018-12-08T01:53:34.033Z,9.60
2018-12-08T01:54:41.980Z,9.60
2018-12-08T01:55:49.931Z,9.60
2018-12-08T01:56:50.891Z,9.50
2018-12-08T01:57:51.975Z,9.60
2018-12-08T01:58:53.171Z,9.50
2018-12-08T01:59:54.175Z,9.60
2018-12-08T02:00:55.356Z,9.50
2018-12-08T02:01:56.438Z,9.50
2018-12-08T02:02:57.419Z,9.50
2018-12-08T02:03:58.382Z,9.50
2018-12-08T02:04:59.344Z,9.50
2018-12-08T02:06:00.367Z,9.50
2018-12-08T02:07:01.567Z,9.40
2018-12-08T02:08:02.627Z,9.50
2018-12-08T02:09:04.900Z,9.50
2018-12-08T02:10:06.287Z,9.50
2018-12-08T02:11:07.243Z,9.50
2018-12-08T02:12:08.185Z,9.50
2018-12-08T02:13:09.151Z,9.50
2018-12-08T02:14:10.108Z,9.50
2018-12-08T02:15:11.276Z,9.50
2018-12-08T02:16:12.447Z,9.50
2018-12-08T02:17:13.403Z,9.50
2018-12-08T02:18:14.371Z,9.50
2018-12-08T02:19:15.443Z,9.50
2018-12-08T02:20:16.597Z,9.50
2018-12-08T02:21:17.612Z,9.50
2018-12-08T02:22:18.779Z,9.60
2018-12-08T02:23:19.739Z,9.60
2018-12-08T02:24:20.702Z,9.60
2018-12-08T02:25:21.775Z,9.60
2018-12-08T02:26:22.727Z,9.60
2018-12-08T02:27:23.690Z,9.60
2018-12-08T02:28:24.638Z,9.50
2018-12-08T02:29:25.595Z,9.50
2018-12-08T02:30:26.665Z,9.50
2018-12-08T02:31:27.628Z,9.50
2018-12-08T02:32:28.604Z,9.50
2018-12-08T02:33:29.561Z,9.40
2018-12-08T02:34:37.576Z,9.40
2018-12-08T02:35:38.530Z,9.40
2018-12-08T02:36:39.583Z,9.40
2018-12-08T02:37:40.580Z,9.30
2018-12-08T02:38:42.269Z,9.30
2018-12-08T02:39:43.409Z,9.30
2018-12-08T02:40:44.383Z,9.30
2018-12-08T02:41:52.342Z,9.30
2018-12-08T02:42:53.401Z,9.30
2018-12-08T02:43:54.464Z,9.30
2018-12-08T02:44:55.536Z,9.30
2018-12-08T02:45:56.566Z,9.30
2018-12-08T02:46:57.689Z,9.30
2018-12-08T02:47:58.664Z,9.30
2018-12-08T02:48:59.618Z,9.30
2018-12-08T02:50:00.677Z,9.30
2018-12-08T02:51:01.737Z,9.30
2018-12-08T02:52:03.000Z,9.20
2018-12-08T02:53:03.964Z,9.20
2018-12-08T02:54:05.037Z,9.20
2018-12-08T02:55:06.235Z,9.10
2018-12-08T02:56:07.199Z,9.10
2018-12-08T02:57:08.158Z,9.10
2018-12-08T02:58:09.220Z,9.10
2018-12-08T02:59:10.173Z,9.00
2018-12-08T03:00:11.676Z,9.00
2018-12-08T03:01:12.634Z,9.00
2018-12-08T03:02:13.699Z,9.00
2018-12-08T03:03:14.656Z,9.00
2018-12-08T03:04:15.658Z,8.90
2018-12-08T03:05:16.726Z,8.90
2018-12-08T03:06:17.690Z,8.90
2018-12-08T03:07:18.910Z,8.90
2018-12-08T03:08:20.071Z,8.90
2018-12-08T03:09:21.132Z,8.90
2018-12-08T03:10:29.052Z,8.90
2018-12-08T03:11:30.133Z,8.90
2018-12-08T03:12:31.099Z,8.80
2018-12-08T03:13:32.069Z,8.90
2018-12-08T03:14:39.988Z,8.90
2018-12-08T03:15:41.064Z,9.00
2018-12-08T03:16:42.127Z,8.90
2018-12-08T03:17:43.089Z,8.90
2018-12-08T03:18:44.045Z,9.00
2018-12-08T03:19:45.016Z,8.90
2018-12-08T03:20:45.988Z,9.00
2018-12-08T03:21:46.947Z,9.00
2018-12-08T03:22:47.921Z,9.00
2018-12-08T03:23:48.867Z,9.00
2018-12-08T03:24:49.835Z,9.00
2018-12-08T03:25:50.913Z,9.00
2018-12-08T03:26:51.987Z,9.00
2018-12-08T03:27:52.957Z,9.00
2018-12-08T03:28:54.030Z,9.00
2018-12-08T03:29:55.094Z,9.10
2018-12-08T03:30:56.169Z,9.10
2018-12-08T03:31:57.188Z,9.10
2018-12-08T03:32:58.167Z,9.00
2018-12-08T03:33:59.166Z,9.00
2018-12-08T03:35:00.131Z,9.00
2018-12-08T03:36:01.151Z,8.90
2018-12-08T03:37:02.363Z,9.00
2018-12-08T03:38:03.326Z,8.90
2018-12-08T03:39:05.987Z,8.90
2018-12-08T03:40:07.163Z,8.90
2018-12-08T03:41:08.240Z,8.90
2018-12-08T03:42:09.200Z,8.90
2018-12-08T03:43:10.169Z,8.90
2018-12-08T03:44:11.146Z,8.90
2018-12-08T03:45:12.331Z,8.80
2018-12-08T03:46:13.732Z,8.80
2018-12-08T03:47:14.807Z,8.80
2018-12-08T03:48:15.795Z,8.80
2018-12-08T03:49:16.756Z,8.80
2018-12-08T03:50:17.822Z,8.80
2018-12-08T03:51:18.795Z,8.70
2018-12-08T03:52:19.758Z,8.70
2018-12-08T03:53:20.717Z,8.70
2018-12-08T03:54:21.695Z,8.60
2018-12-08T03:55:22.863Z,8.60
2018-12-08T03:56:23.932Z,8.50
2018-12-08T03:57:24.900Z,8.40
2018-12-08T03:58:25.855Z,8.40
2018-12-08T03:59:26.933Z,8.40
2018-12-08T04:00:28.003Z,8.40
2018-12-08T04:01:28.964Z,8.40
2018-12-08T04:02:29.919Z,8.40
2018-12-08T04:03:30.884Z,8.40
2018-12-08T04:04:31.948Z,8.40
2018-12-08T04:05:32.915Z,8.40
2018-12-08T04:06:33.885Z,8.40
2018-12-08T04:07:34.847Z,8.40
2018-12-08T04:08:36.128Z,8.50
2018-12-08T04:09:37.206Z,8.60
2018-12-08T04:10:38.268Z,8.60
2018-12-08T04:11:39.232Z,8.60
2018-12-08T04:12:40.209Z,8.60
2018-12-08T04:13:41.397Z,8.60
2018-12-08T04:14:42.366Z,8.60
2018-12-08T04:15:43.421Z,8.60
2018-12-08T04:16:44.611Z,8.60
2018-12-08T04:17:45.567Z,8.70
2018-12-08T04:18:46.632Z,8.70
2018-12-08T04:19:47.591Z,8.70
2018-12-08T04:20:48.655Z,8.70
2018-12-08T04:21:49.725Z,8.70
2018-12-08T04:22:50.687Z,8.70
2018-12-08T04:23:51.651Z,8.70
2018-12-08T04:24:52.606Z,8.80
2018-12-08T04:25:53.672Z,8.70
2018-12-08T04:26:54.742Z,8.80
2018-12-08T04:27:55.810Z,8.70
2018-12-08T04:28:56.902Z,8.60
2018-12-08T04:29:58.009Z,8.70
2018-12-08T04:30:58.994Z,8.80
2018-12-08T04:32:00.035Z,8.70
2018-12-08T04:33:00.995Z,8.70
2018-12-08T04:34:02.148Z,8.70
2018-12-08T04:35:04.018Z,8.70
2018-12-08T04:36:04.995Z,8.70
2018-12-08T04:37:06.017Z,8.70
2018-12-08T04:38:07.079Z,8.60
2018-12-08T04:39:08.039Z,8.60
2018-12-08T04:40:09.105Z,8.60
2018-12-08T04:41:10.075Z,8.60
2018-12-08T04:42:11.040Z,8.60
2018-12-08T04:43:12.007Z,8.60
2018-12-08T04:44:12.954Z,8.70
2018-12-08T04:45:14.115Z,8.60
2018-12-08T04:46:15.293Z,8.70
2018-12-08T04:47:16.531Z,8.70
2018-12-08T04:48:17.496Z,8.60
2018-12-08T04:49:18.464Z,8.70
2018-12-08T04:50:19.524Z,8.70
2018-12-08T04:51:20.604Z,8.60
2018-12-08T04:52:21.565Z,8.60
2018-12-08T04:53:22.520Z,8.60
2018-12-08T04:54:23.696Z,8.60
2018-12-08T04:55:24.692Z,8.60
2018-12-08T04:56:25.888Z,8.60
2018-12-08T04:57:26.879Z,8.60
2018-12-08T04:58:27.835Z,8.60
2018-12-08T04:59:28.910Z,8.70
2018-12-08T05:00:29.981Z,8.70
2018-12-08T05:01:30.949Z,8.70
2018-12-08T05:02:32.131Z,8.70
2018-12-08T05:03:33.097Z,8.50
2018-12-08T05:04:34.269Z,8.50
2018-12-08T05:05:35.324Z,8.40
2018-12-08T05:06:36.282Z,8.40
2018-12-08T05:07:37.238Z,8.40
2018-12-08T05:08:38.179Z,8.40
2018-12-08T05:09:39.142Z,8.30
2018-12-08T05:10:40.199Z,8.30
2018-12-08T05:11:41.372Z,8.30
2018-12-08T05:12:42.331Z,8.30
2018-12-08T05:13:43.293Z,8.30
2018-12-08T05:14:44.249Z,8.30
2018-12-08T05:15:45.211Z,8.20
2018-12-08T05:16:46.467Z,8.20
2018-12-08T05:17:47.523Z,8.20
2018-12-08T05:18:48.488Z,8.20
2018-12-08T05:19:49.458Z,8.20
2018-12-08T05:20:50.454Z,8.20
2018-12-08T05:21:51.465Z,8.20
2018-12-08T05:22:52.407Z,8.20
2018-12-08T05:23:53.463Z,8.20
2018-12-08T05:24:54.532Z,8.10
2018-12-08T05:25:55.529Z,8.10
2018-12-08T05:26:56.571Z,8.10
2018-12-08T05:27:57.541Z,8.00
2018-12-08T05:28:58.588Z,8.10
2018-12-08T05:29:59.646Z,8.10
2018-12-08T05:31:00.700Z,8.20
2018-12-08T05:32:01.683Z,8.10
2018-12-08T05:33:02.664Z,8.10
2018-12-08T05:34:03.623Z,8.10
2018-12-08T05:35:04.687Z,8.20
2018-12-08T05:36:05.851Z,8.20
2018-12-08T05:37:06.920Z,8.20
2018-12-08T05:38:07.879Z,8.20
2018-12-08T05:39:08.838Z,8.20
2018-12-08T05:40:10.004Z,8.10
2018-12-08T05:41:10.964Z,8.10
2018-12-08T05:42:11.966Z,8.10
2018-12-08T05:43:12.923Z,8.10
2018-12-08T05:44:14.189Z,8.10
2018-12-08T05:45:15.244Z,8.10
2018-12-08T05:46:16.191Z,8.10
2018-12-08T05:47:17.251Z,8.10
2018-12-08T05:48:18.221Z,8.10
2018-12-08T05:49:19.323Z,8.10
2018-12-08T05:50:20.409Z,8.10
2018-12-08T05:51:21.375Z,8.20
2018-12-08T05:52:22.347Z,8.20
2018-12-08T05:53:23.309Z,8.30
2018-12-08T05:54:24.271Z,8.30
2018-12-08T05:55:25.463Z,8.20
2018-12-08T05:56:26.524Z,8.20
2018-12-08T05:57:27.491Z,8.30
2018-12-08T05:58:28.439Z,8.30
2018-12-08T05:59:29.388Z,8.20
2018-12-08T06:00:30.775Z,8.30
2018-12-08T06:01:31.957Z,8.30
2018-12-08T06:02:32.926Z,8.20
2018-12-08T06:03:33.997Z,8.20
2018-12-08T06:04:34.957Z,8.20
2018-12-08T06:05:36.031Z,8.20
2018-12-08T06:06:36.995Z,8.30
2018-12-08T06:07:38.063Z,8.30
2018-12-08T06:08:39.041Z,8.30
2018-12-08T06:09:40.000Z,8.30
2018-12-08T06:10:41.067Z,8.30
2018-12-08T06:11:42.032Z,8.30
2018-12-08T06:12:42.994Z,8.40
2018-12-08T06:13:43.955Z,8.30
2018-12-08T06:14:45.022Z,8.30
2018-12-08T06:15:45.987Z,8.30
2018-12-08T06:16:46.947Z,8.20
2018-12-08T06:17:47.914Z,8.20
2018-12-08T06:18:49.128Z,8.20
2018-12-08T06:19:50.111Z,8.10
2018-12-08T06:20:51.283Z,8.10
2018-12-08T06:21:52.246Z,8.10
2018-12-08T06:22:54.104Z,8.10
2018-12-08T06:23:55.053Z,8.10
2018-12-08T06:24:56.114Z,8.10
2018-12-08T06:25:57.294Z,8.10
2018-12-08T06:26:58.372Z,8.10
2018-12-08T06:28:04.707Z,8.10
2018-12-08T06:29:05.766Z,8.20
2018-12-08T06:30:07.443Z,8.20
2018-12-08T06:31:08.523Z,8.30
2018-12-08T06:32:09.575Z,8.20
2018-12-08T06:33:10.560Z,8.20
2018-12-08T06:34:11.518Z,8.20
2018-12-08T06:35:12.531Z,8.30
2018-12-08T06:36:13.604Z,8.30
2018-12-08T06:37:14.555Z,8.30
2018-12-08T06:38:15.520Z,8.30
2018-12-08T06:39:16.800Z,8.30
2018-12-08T06:40:17.755Z,8.40
2018-12-08T06:41:18.936Z,8.40
2018-12-08T06:42:19.960Z,8.40
2018-12-08T06:43:20.925Z,8.40
2018-12-08T06:44:21.888Z,8.40
2018-12-08T06:45:22.947Z,8.40
2018-12-08T06:46:23.907Z,8.40
2018-12-08T06:47:24.891Z,8.40
2018-12-08T06:48:26.063Z,8.40
2018-12-08T06:49:27.103Z,8.40
2018-12-08T06:50:28.054Z,8.50
2018-12-08T06:51:29.034Z,8.50
2018-12-08T06:52:30.103Z,8.50
2018-12-08T06:53:31.264Z,8.50
2018-12-08T06:54:32.219Z,8.40
2018-12-08T06:55:33.191Z,8.40
2018-12-08T06:56:34.161Z,8.40
2018-12-08T06:57:35.258Z,8.40
2018-12-08T06:58:36.218Z,8.40
2018-12-08T06:59:37.178Z,8.40
2018-12-08T07:00:38.246Z,8.40
2018-12-08T07:01:39.425Z,8.50
2018-12-08T07:02:40.396Z,8.40
2018-12-08T07:03:41.566Z,8.40
2018-12-08T07:04:42.531Z,8.50
2018-12-08T07:05:43.487Z,8.50
2018-12-08T07:06:44.439Z,8.50
2018-12-08T07:07:45.507Z,8.40
2018-12-08T07:08:46.579Z,8.40
2018-12-08T07:09:47.664Z,8.40
2018-12-08T07:10:48.728Z,8.40
2018-12-08T07:11:49.691Z,8.30
2018-12-08T07:12:50.767Z,8.30
2018-12-08T07:13:51.833Z,8.30
2018-12-08T07:14:52.792Z,8.30
2018-12-08T07:15:53.753Z,8.30
2018-12-08T07:16:54.835Z,8.30
2018-12-08T07:17:56.011Z,8.30
2018-12-08T07:18:56.978Z,8.40
2018-12-08T07:19:57.935Z,8.40
2018-12-08T07:20:58.897Z,8.40
2018-12-08T07:21:59.866Z,8.40
2018-12-08T07:23:00.957Z,8.30
2018-12-08T07:24:01.928Z,8.40
2018-12-08T07:25:03.111Z,8.40
2018-12-08T07:26:04.282Z,8.40
2018-12-08T07:27:05.456Z,8.40
2018-12-08T07:28:06.543Z,8.40
2018-12-08T07:29:07.619Z,8.40
2018-12-08T07:30:15.871Z,8.40
2018-12-08T07:31:16.952Z,8.40
2018-12-08T07:32:18.036Z,8.40
2018-12-08T07:33:18.999Z,8.40
2018-12-08T07:34:19.999Z,8.50
2018-12-08T07:35:21.088Z,8.40
2018-12-08T07:36:22.159Z,8.50
2018-12-08T07:37:23.322Z,8.40
2018-12-08T07:38:24.283Z,8.50
2018-12-08T07:39:25.359Z,8.50
2018-12-08T07:40:26.431Z,8.40
2018-12-08T07:41:27.711Z,8.50
2018-12-08T07:42:28.880Z,8.50
2018-12-08T07:43:29.834Z,8.50
2018-12-08T07:44:30.827Z,8.60
2018-12-08T07:45:31.802Z,8.60
2018-12-08T07:46:32.869Z,8.50
2018-12-08T07:47:33.818Z,8.40
2018-12-08T07:48:34.783Z,8.40
2018-12-08T07:49:35.753Z,8.50
2018-12-08T07:50:36.711Z,8.50
2018-12-08T07:51:37.671Z,8.50
2018-12-08T07:52:38.755Z,8.50
2018-12-08T07:53:39.758Z,8.60
2018-12-08T07:54:40.763Z,8.60
2018-12-08T07:55:41.745Z,8.70
2018-12-08T07:56:42.723Z,8.70
2018-12-08T07:57:43.689Z,8.70
2018-12-08T07:58:44.698Z,8.70
2018-12-08T07:59:45.657Z,8.70
2018-12-08T08:00:46.717Z,8.80
2018-12-08T08:01:47.715Z,8.80
2018-12-08T08:02:48.667Z,8.80
2018-12-08T08:03:49.636Z,8.80
2018-12-08T08:04:50.618Z,8.80
2018-12-08T08:05:51.579Z,8.70
2018-12-08T08:06:52.539Z,8.70
2018-12-08T08:07:53.496Z,8.60
2018-12-08T08:08:54.503Z,8.60
2018-12-08T08:09:55.452Z,8.60
2018-12-08T08:10:56.529Z,8.60
2018-12-08T08:11:57.490Z,8.60
2018-12-08T08:12:58.662Z,8.70
2018-12-08T08:13:59.747Z,8.70
2018-12-08T08:15:01.019Z,8.70
2018-12-08T08:16:02.088Z,8.70
2018-12-08T08:17:03.151Z,8.70
2018-12-08T08:18:04.241Z,8.70
2018-12-08T08:19:05.244Z,8.60
2018-12-08T08:20:06.508Z,8.60
2018-12-08T08:21:07.456Z,8.60
2018-12-08T08:22:08.406Z,8.60
2018-12-08T08:23:09.382Z,8.60
2018-12-08T08:24:10.347Z,8.60
2018-12-08T08:25:11.539Z,8.60
2018-12-08T08:26:12.541Z,8.60
2018-12-08T08:27:13.510Z,8.60
2018-12-08T08:28:14.475Z,8.60
2018-12-08T08:29:15.443Z,8.60
2018-12-08T08:30:16.614Z,8.70
2018-12-08T08:31:17.563Z,8.80
2018-12-08T08:32:18.652Z,8.80
2018-12-08T08:33:19.630Z,8.80
2018-12-08T08:34:20.631Z,8.80
2018-12-08T08:35:21.590Z,8.90
2018-12-08T08:36:22.558Z,8.90
2018-12-08T08:37:23.512Z,8.90
2018-12-08T08:38:24.819Z,8.90
2018-12-08T08:39:25.907Z,9.00
2018-12-08T08:40:26.875Z,9.00
2018-12-08T08:41:27.931Z,8.90
2018-12-08T08:42:28.933Z,8.90
2018-12-08T08:43:30.075Z,8.90
2018-12-08T08:44:31.518Z,9.00
2018-12-08T08:45:32.871Z,9.00
2018-12-08T08:46:33.935Z,9.00
2018-12-08T08:47:34.999Z,9.00
2018-12-08T08:48:35.979Z,9.00
2018-12-08T08:49:36.980Z,9.00
2018-12-08T08:50:37.948Z,9.00
2018-12-08T08:51:38.927Z,9.00
2018-12-08T08:52:39.987Z,9.00
2018-12-08T08:53:40.947Z,9.00
2018-12-08T08:54:41.898Z,9.00
2018-12-08T08:55:42.857Z,9.10
2018-12-08T08:56:43.822Z,9.10
2018-12-08T08:57:44.779Z,9.10
2018-12-08T08:58:45.770Z,9.20
2018-12-08T08:59:46.733Z,9.20
2018-12-08T09:00:47.699Z,9.10
2018-12-08T09:01:48.781Z,9.10
2018-12-08T09:02:49.867Z,9.10
2018-12-08T09:03:50.869Z,9.10
2018-12-08T09:04:51.839Z,9.10
2018-12-08T09:05:52.803Z,9.10
2018-12-08T09:06:53.859Z,9.10
2018-12-08T09:08:01.980Z,9.10
2018-12-08T09:09:03.856Z,9.10
2018-12-08T09:10:06.831Z,9.10
2018-12-08T09:11:07.905Z,9.10
2018-12-08T09:12:08.868Z,9.10
2018-12-08T09:13:10.036Z,9.00
2018-12-08T09:14:13.307Z,9.10
2018-12-08T09:15:14.375Z,9.00
2018-12-08T09:16:15.339Z,9.00
2018-12-08T09:17:16.418Z,9.00
2018-12-08T09:18:17.405Z,9.00
2018-12-08T09:19:18.384Z,9.00
2018-12-08T09:20:26.344Z,9.10
2018-12-08T09:21:27.512Z,9.20
2018-12-08T09:22:28.502Z,9.20
2018-12-08T09:23:29.503Z,9.20
2018-12-08T09:24:30.571Z,9.20
2018-12-08T09:25:31.647Z,9.20
2018-12-08T09:26:32.723Z,9.30
2018-12-08T09:27:33.915Z,9.30
2018-12-08T09:28:34.963Z,9.30
2018-12-08T09:29:35.941Z,9.30
2018-12-08T09:30:37.217Z,9.20
2018-12-08T09:31:38.231Z,9.30
2018-12-08T09:32:39.255Z,9.20
2018-12-08T09:33:40.217Z,9.20
2018-12-08T09:34:41.195Z,9.20
2018-12-08T09:35:42.255Z,9.20
2018-12-08T09:36:43.223Z,9.20
2018-12-08T09:37:44.321Z,9.20
2018-12-08T09:38:45.643Z,9.30
2018-12-08T09:39:47.391Z,9.30
2018-12-08T09:40:48.354Z,9.30
2018-12-08T09:41:49.363Z,9.40
2018-12-08T09:42:50.427Z,9.40
2018-12-08T09:43:51.414Z,9.40
2018-12-08T09:44:52.383Z,9.40
2018-12-08T09:45:53.439Z,9.30
2018-12-08T09:46:54.515Z,9.30
2018-12-08T09:47:55.641Z,9.30
2018-12-08T09:48:56.670Z,9.40
2018-12-08T09:49:57.659Z,9.40
2018-12-08T09:50:58.743Z,9.40
2018-12-08T09:51:59.717Z,9.40
2018-12-08T09:53:12.375Z,9.50
2018-12-08T09:54:13.359Z,9.40
2018-12-08T09:55:14.325Z,9.40
2018-12-08T09:56:15.383Z,9.40
2018-12-08T09:57:16.441Z,9.40
2018-12-08T09:58:17.394Z,9.40
2018-12-08T09:59:18.354Z,9.30
2018-12-08T10:00:19.329Z,9.30
2018-12-08T10:01:20.704Z,9.30
2018-12-08T10:02:21.771Z,9.40
2018-12-08T10:03:22.726Z,9.40
2018-12-08T10:04:23.785Z,9.40
2018-12-08T10:05:24.851Z,9.40
2018-12-08T10:06:25.912Z,9.40
2018-12-08T10:07:26.915Z,9.30
2018-12-08T10:08:27.902Z,9.40
2018-12-08T10:09:28.876Z,9.40
2018-12-08T10:10:29.939Z,9.40
2018-12-08T10:11:30.897Z,9.40
2018-12-08T10:12:31.867Z,9.40
2018-12-08T10:13:32.947Z,9.40
2018-12-08T10:14:34.032Z,9.40
2018-12-08T10:15:35.112Z,9.40
2018-12-08T10:16:36.068Z,9.40
2018-12-08T10:17:37.024Z,9.40
2018-12-08T10:18:38.267Z,9.40
2018-12-08T10:19:39.244Z,9.40
2018-12-08T10:20:40.423Z,9.40
2018-12-08T10:21:41.430Z,9.40
2018-12-08T10:22:42.383Z,9.50
2018-12-08T10:23:43.338Z,9.40
2018-12-08T10:24:44.291Z,9.40
2018-12-08T10:25:45.263Z,9.50
2018-12-08T10:26:46.225Z,9.50
2018-12-08T10:27:47.184Z,9.50
2018-12-08T10:28:48.163Z,9.50
2018-12-08T10:29:49.135Z,9.50
2018-12-08T10:30:50.191Z,9.40
2018-12-08T10:31:51.199Z,9.60
2018-12-08T10:32:52.435Z,9.60
2018-12-08T10:33:53.501Z,9.60
2018-12-08T10:34:54.749Z,9.60
2018-12-08T10:35:55.723Z,9.60
2018-12-08T10:36:56.724Z,9.60
2018-12-08T10:37:57.679Z,9.60
2018-12-08T10:38:58.655Z,9.60
2018-12-08T10:39:59.637Z,9.60
2018-12-08T10:41:00.704Z,9.50
2018-12-08T10:42:01.671Z,9.50
2018-12-08T10:43:02.735Z,9.50
2018-12-08T10:44:04.203Z,9.50
2018-12-08T10:45:05.575Z,9.50
2018-12-08T10:46:06.759Z,9.40
2018-12-08T10:47:07.973Z,9.40
2018-12-08T10:48:09.045Z,9.20
2018-12-08T10:49:10.004Z,9.20
2018-12-08T10:50:11.092Z,9.20
2018-12-08T10:51:12.075Z,9.20
2018-12-08T10:52:13.040Z,9.30
2018-12-08T10:53:14.023Z,9.30
2018-12-08T10:54:15.008Z,9.30
2018-12-08T10:55:16.070Z,9.30
2018-12-08T10:56:17.027Z,9.30
2018-12-08T10:57:17.996Z,9.30
2018-12-08T10:58:19.082Z,9.40
2018-12-08T10:59:20.095Z,9.40
2018-12-08T11:00:27.188Z,9.50
2018-12-08T11:01:30.294Z,9.50
2018-12-08T11:02:36.143Z,9.50
2018-12-08T11:03:42.078Z,9.50
2018-12-08T11:04:43.045Z,9.50
2018-12-08T11:05:51.207Z,9.50
2018-12-08T11:06:52.260Z,9.40
2018-12-08T11:07:53.334Z,9.40
2018-12-08T11:08:54.425Z,9.40
2018-12-08T11:09:55.467Z,9.40
2018-12-08T11:10:56.544Z,9.50
2018-12-08T11:11:57.606Z,9.40
2018-12-08T11:12:58.579Z,9.40
2018-12-08T11:13:59.649Z,9.50
2018-12-08T11:15:01.033Z,9.50
2018-12-08T11:16:02.345Z,9.40
2018-12-08T11:17:03.638Z,9.50
2018-12-08T11:18:04.766Z,9.50
2018-12-08T11:19:05.840Z,9.50
2018-12-08T11:20:14.314Z,9.60
2018-12-08T11:21:15.393Z,9.60
2018-12-08T11:22:16.473Z,9.60
2018-12-08T11:23:17.443Z,9.60
2018-12-08T11:24:18.507Z,9.60
2018-12-08T11:25:19.514Z,9.60
2018-12-08T11:26:20.703Z,9.60
2018-12-08T11:27:21.782Z,9.50
2018-12-08T11:28:22.870Z,9.50
2018-12-08T11:29:24.057Z,9.50
2018-12-08T11:30:25.163Z,9.50
2018-12-08T11:31:26.124Z,9.50
2018-12-08T11:32:27.092Z,9.50
2018-12-08T11:33:28.151Z,9.60
2018-12-08T11:34:29.099Z,9.60
2018-12-08T11:35:30.081Z,9.60
2018-12-08T11:36:31.247Z,9.60
2018-12-08T11:37:32.317Z,9.50
2018-12-08T11:38:33.507Z,9.50
2018-12-08T11:39:34.487Z,9.40
2018-12-08T11:40:35.486Z,9.50
2018-12-08T11:41:38.665Z,9.50
2018-12-08T11:42:39.694Z,9.50
2018-12-08T11:43:40.762Z,9.50
2018-12-08T11:44:41.949Z,9.50
2018-12-08T11:45:43.054Z,9.50
2018-12-08T11:46:44.540Z,9.50
2018-12-08T11:47:45.603Z,9.50
2018-12-08T11:48:46.692Z,9.50
2018-12-08T11:49:47.647Z,9.50
2018-12-08T11:50:48.636Z,9.50
2018-12-08T11:51:49.859Z,9.50
2018-12-08T11:52:50.973Z,9.50
2018-12-08T11:53:52.053Z,9.40
2018-12-08T11:54:53.004Z,9.40
2018-12-08T11:55:54.104Z,9.40
2018-12-08T11:56:55.179Z,9.40
2018-12-08T11:57:56.140Z,9.40
2018-12-08T11:58:57.107Z,9.50
2018-12-08T11:59:58.075Z,9.40
2018-12-08T12:00:59.163Z,9.50
2018-12-08T12:02:00.212Z,9.50
2018-12-08T12:03:01.495Z,9.50
2018-12-08T12:04:02.706Z,9.50
2018-12-08T12:05:04.584Z,9.50
2018-12-08T12:06:05.649Z,9.60
2018-12-08T12:07:06.655Z,9.60
2018-12-08T12:08:07.933Z,9.60
2018-12-08T12:09:09.139Z,9.70
2018-12-08T12:10:10.225Z,9.60
2018-12-08T12:11:11.361Z,9.70
2018-12-08T12:12:12.464Z,9.70
2018-12-08T12:13:13.669Z,9.70
2018-12-08T12:14:14.632Z,9.60
2018-12-08T12:15:15.645Z,9.60
2018-12-08T12:16:16.815Z,9.60
2018-12-08T12:17:17.829Z,9.60
2018-12-08T12:18:18.789Z,9.60
2018-12-08T12:19:19.742Z,9.60
2018-12-08T12:20:20.791Z,9.60
2018-12-08T12:21:21.764Z,9.60
2018-12-08T12:22:22.850Z,9.60
2018-12-08T12:23:23.907Z,9.70
2018-12-08T12:24:25.065Z,9.70
2018-12-08T12:25:26.442Z,9.80
2018-12-08T12:26:28.371Z,9.90
2018-12-08T12:27:29.339Z,9.80
2018-12-08T12:28:30.308Z,9.70
2018-12-08T12:29:31.360Z,9.70
2018-12-08T12:30:32.436Z,9.70
2018-12-08T12:31:33.511Z,9.60
2018-12-08T12:32:34.580Z,9.60
2018-12-08T12:33:35.656Z,9.60
2018-12-08T12:34:36.943Z,9.70
2018-12-08T12:35:37.968Z,9.70
2018-12-08T12:36:38.936Z,9.70
2018-12-08T12:37:39.898Z,9.80
2018-12-08T12:38:40.975Z,9.80
2018-12-08T12:39:41.935Z,9.80
2018-12-08T12:40:42.900Z,9.80
2018-12-08T12:41:44.360Z,9.80
2018-12-08T12:42:45.314Z,9.80
2018-12-08T12:43:46.263Z,9.80
2018-12-08T12:44:47.435Z,9.90
2018-12-08T12:45:48.491Z,9.90
2018-12-08T12:46:49.589Z,9.90
2018-12-08T12:47:50.657Z,9.90
2018-12-08T12:48:51.619Z,10.00
2018-12-08T12:49:53.052Z,9.90
2018-12-08T12:50:54.021Z,9.90
2018-12-08T12:51:55.030Z,9.90
2018-12-08T12:52:55.992Z,9.90
2018-12-08T12:53:56.959Z,9.90
2018-12-08T12:54:57.924Z,9.90
2018-12-08T12:55:58.879Z,9.90
2018-12-08T12:56:59.943Z,9.90
2018-12-08T12:58:00.913Z,9.90
2018-12-08T12:59:01.971Z,10.00
2018-12-08T13:00:06.146Z,10.00
2018-12-08T13:01:07.206Z,9.90
2018-12-08T13:02:08.275Z,9.90
2018-12-08T13:03:09.233Z,9.90
2018-12-08T13:04:10.198Z,9.90
2018-12-08T13:05:11.159Z,9.90
2018-12-08T13:06:12.234Z,10.00
2018-12-08T13:07:13.295Z,9.90
2018-12-08T13:08:14.247Z,9.90
2018-12-08T13:09:15.199Z,9.90
2018-12-08T13:10:16.166Z,9.90
2018-12-08T13:11:17.129Z,9.90
2018-12-08T13:12:18.315Z,9.90
2018-12-08T13:13:19.277Z,9.90
2018-12-08T13:14:20.294Z,10.00
2018-12-08T13:15:21.250Z,10.00
2018-12-08T13:16:29.123Z,10.00
2018-12-08T13:17:30.322Z,10.00
2018-12-08T13:18:31.543Z,10.00
2018-12-08T13:19:32.983Z,10.00
2018-12-08T13:20:34.147Z,10.00
2018-12-08T13:21:35.218Z,10.00
2018-12-08T13:22:36.192Z,10.00
2018-12-08T13:23:37.267Z,9.90
2018-12-08T13:24:38.227Z,10.00
2018-12-08T13:25:39.267Z,9.90
2018-12-08T13:26:40.256Z,10.00
2018-12-08T13:27:41.232Z,10.00
2018-12-08T13:28:42.185Z,9.90
2018-12-08T13:29:43.242Z,10.00
2018-12-08T13:30:44.211Z,10.00
2018-12-08T13:31:45.284Z,10.00
2018-12-08T13:32:46.243Z,9.90
2018-12-08T13:33:50.019Z,9.90